PAPH

Port Heiden Airport

Airport
ICAO code
PAPH
IATA Code
PTH
Summary
ICAO Region
NAM
ICAO Territory
Location

, Alaska

Serving
Port Heiden
Elevation
95 ft
Coordinates
56° 57' 33" N , 158° 37' 59" W
Metar
PAPH 250517Z AUTO 24015KT 7SM OVC005 04/03 A2973 RMK AO2 RAE03 CIG 005V008 P0000 $

Runways

Designator Length Width Surface Rops
13/31 1219 30 GVL No/No
5/23 1524 30 GVL No/No

Airport map

Aerial View

SKYbrary Partners:

Safety knowledge contributed by: